N496LL KIJX-KSTL
Flight info
| Callsign | N496LL |
|---|---|
| Flight time | 0h 59m |
| Altitude | 12000 |
| Route | OXKEK LEBOY HARDI CSX VPRMO |
| Aircraft | S22T/L-SDGRY/S |
Departure
| Time | 2026-04-22 15:33 |
|---|---|
| Airport | Jacksonville Municipal Airport (KIJX) |
Arrival
| Time | 2026-04-22 16:32 |
|---|---|
| Airport | St. Louis Lambert International Airport (KSTL) |
| Time | Latitude | Longitude | Altitude | Speed | Heading |
|---|---|---|---|---|---|
| 2026-04-22 15:17 | 39.77128 | -90.23780 | 625 ft | 0 kts | 185° |
| 2026-04-22 15:29 | 39.77121 | -90.23783 | 631 ft | 3 kts | 213° |
| 2026-04-22 15:29 | 39.77125 | -90.23749 | 635 ft | 11 kts | 25° |
| 2026-04-22 15:30 | 39.77252 | -90.23816 | 626 ft | 12 kts | 316° |
| 2026-04-22 15:30 | 39.77312 | -90.23893 | 626 ft | 12 kts | 316° |
| 2026-04-22 15:30 | 39.77365 | -90.23948 | 632 ft | 8 kts | 359° |
| 2026-04-22 15:30 | 39.77417 | -90.23885 | 637 ft | 13 kts | 48° |
| 2026-04-22 15:31 | 39.77499 | -90.23785 | 627 ft | 19 kts | 41° |
| 2026-04-22 15:31 | 39.77603 | -90.23649 | 627 ft | 23 kts | 45° |
| 2026-04-22 15:31 | 39.77722 | -90.23492 | 629 ft | 21 kts | 43° |
| 2026-04-22 15:31 | 39.77770 | -90.23413 | 626 ft | 5 kts | 45° |
| 2026-04-22 15:32 | 39.77780 | -90.23427 | 630 ft | 3 kts | 221° |
| 2026-04-22 15:32 | 39.77753 | -90.23451 | 628 ft | 6 kts | 227° |
| 2026-04-22 15:32 | 39.77694 | -90.23530 | 629 ft | 35 kts | 224° |
| 2026-04-22 15:32 | 39.77390 | -90.23911 | 645 ft | 79 kts | 222° |
| 2026-04-22 15:33 | 39.76970 | -90.24411 | 819 ft | 83 kts | 220° |
| 2026-04-22 15:33 | 39.76499 | -90.24876 | 1031 ft | 83 kts | 217° |
| 2026-04-22 15:33 | 39.75977 | -90.25286 | 1196 ft | 87 kts | 214° |
| 2026-04-22 15:33 | 39.75481 | -90.25659 | 1430 ft | 91 kts | 217° |
| 2026-04-22 15:34 | 39.74858 | -90.25946 | 1666 ft | 98 kts | 203° |
| 2026-04-22 15:34 | 39.74222 | -90.26210 | 2090 ft | 92 kts | 203° |
| 2026-04-22 15:34 | 39.73638 | -90.26560 | 2339 ft | 97 kts | 216° |
| 2026-04-22 15:34 | 39.73054 | -90.26960 | 2668 ft | 94 kts | 210° |
| 2026-04-22 15:35 | 39.72455 | -90.27321 | 2898 ft | 97 kts | 237° |
| 2026-04-22 15:35 | 39.72165 | -90.28174 | 3124 ft | 114 kts | 232° |
| 2026-04-22 15:35 | 39.71386 | -90.28472 | 3426 ft | 124 kts | 189° |
| 2026-04-22 15:35 | 39.70596 | -90.28866 | 3689 ft | 121 kts | 214° |
| 2026-04-22 15:36 | 39.69863 | -90.29353 | 4005 ft | 118 kts | 210° |
| 2026-04-22 15:36 | 39.69124 | -90.29846 | 4295 ft | 121 kts | 211° |
| 2026-04-22 15:36 | 39.68375 | -90.30351 | 4561 ft | 123 kts | 208° |
| 2026-04-22 15:36 | 39.67611 | -90.30863 | 4851 ft | 123 kts | 208° |
| 2026-04-22 15:37 | 39.66848 | -90.31375 | 5115 ft | 125 kts | 208° |
| 2026-04-22 15:37 | 39.66080 | -90.31892 | 5364 ft | 127 kts | 207° |
| 2026-04-22 15:37 | 39.65278 | -90.32433 | 5635 ft | 128 kts | 207° |
| 2026-04-22 15:37 | 39.64485 | -90.32966 | 5918 ft | 129 kts | 207° |
| 2026-04-22 15:38 | 39.63681 | -90.33505 | 6182 ft | 131 kts | 207° |
| 2026-04-22 15:38 | 39.62040 | -90.34613 | 6679 ft | 137 kts | 210° |
| 2026-04-22 15:38 | 39.61341 | -90.35413 | 6973 ft | 135 kts | 225° |
| 2026-04-22 15:39 | 39.60613 | -90.36309 | 7002 ft | 153 kts | 223° |
| 2026-04-22 15:39 | 39.59807 | -90.37292 | 7003 ft | 165 kts | 224° |
| 2026-04-22 15:39 | 39.58952 | -90.38335 | 7001 ft | 172 kts | 224° |
| 2026-04-22 15:39 | 39.58067 | -90.39412 | 7000 ft | 176 kts | 224° |
| 2026-04-22 15:40 | 39.57169 | -90.40506 | 6998 ft | 178 kts | 226° |
| 2026-04-22 15:40 | 39.56267 | -90.41607 | 6999 ft | 179 kts | 225° |
| 2026-04-22 15:40 | 39.55363 | -90.42705 | 6996 ft | 178 kts | 224° |
| 2026-04-22 15:40 | 39.54467 | -90.43794 | 6996 ft | 176 kts | 224° |
| 2026-04-22 15:41 | 39.53577 | -90.44875 | 7001 ft | 175 kts | 225° |
| 2026-04-22 15:41 | 39.52691 | -90.45952 | 7002 ft | 174 kts | 225° |
| 2026-04-22 15:41 | 39.51809 | -90.47024 | 7001 ft | 173 kts | 225° |
| 2026-04-22 15:41 | 39.50929 | -90.48090 | 6999 ft | 173 kts | 224° |
| 2026-04-22 15:42 | 39.50052 | -90.49154 | 6999 ft | 173 kts | 224° |
| 2026-04-22 15:42 | 39.49173 | -90.50219 | 7000 ft | 173 kts | 225° |
| 2026-04-22 15:42 | 39.48296 | -90.51285 | 7001 ft | 173 kts | 225° |
| 2026-04-22 15:42 | 39.47420 | -90.52348 | 7002 ft | 173 kts | 225° |
| 2026-04-22 15:43 | 39.46546 | -90.53408 | 7001 ft | 173 kts | 224° |
| 2026-04-22 15:43 | 39.45667 | -90.54472 | 7001 ft | 173 kts | 225° |
| 2026-04-22 15:43 | 39.44788 | -90.55536 | 6999 ft | 173 kts | 224° |
| 2026-04-22 15:43 | 39.43909 | -90.56597 | 7001 ft | 173 kts | 224° |
| 2026-04-22 15:44 | 39.42878 | -90.57399 | 7001 ft | 176 kts | 201° |
| 2026-04-22 15:44 | 39.41675 | -90.57737 | 7002 ft | 177 kts | 194° |
| 2026-04-22 15:44 | 39.40471 | -90.58066 | 7002 ft | 177 kts | 195° |
| 2026-04-22 15:44 | 39.39269 | -90.58396 | 7001 ft | 177 kts | 193° |
| 2026-04-22 15:45 | 39.38065 | -90.58721 | 7001 ft | 177 kts | 194° |
| 2026-04-22 15:45 | 39.36860 | -90.59047 | 6994 ft | 177 kts | 194° |
| 2026-04-22 15:45 | 39.35657 | -90.59375 | 6993 ft | 177 kts | 194° |
| 2026-04-22 15:45 | 39.34454 | -90.59699 | 6989 ft | 176 kts | 196° |
| 2026-04-22 15:46 | 39.33259 | -90.60024 | 6989 ft | 175 kts | 196° |
| 2026-04-22 15:46 | 39.32064 | -90.60345 | 6990 ft | 175 kts | 196° |
| 2026-04-22 15:46 | 39.30876 | -90.60669 | 6989 ft | 174 kts | 197° |
| 2026-04-22 15:46 | 39.29687 | -90.60988 | 6992 ft | 175 kts | 197° |
| 2026-04-22 15:47 | 39.28513 | -90.61304 | 6993 ft | 175 kts | 195° |
| 2026-04-22 15:47 | 39.27324 | -90.61626 | 6993 ft | 174 kts | 195° |
| 2026-04-22 15:47 | 39.26136 | -90.61939 | 6993 ft | 174 kts | 195° |
| 2026-04-22 15:47 | 39.24955 | -90.62261 | 6989 ft | 173 kts | 197° |
| 2026-04-22 15:48 | 39.23782 | -90.62567 | 6989 ft | 172 kts | 196° |
| 2026-04-22 15:48 | 39.22613 | -90.62889 | 6989 ft | 172 kts | 197° |
| 2026-04-22 15:48 | 39.21443 | -90.63216 | 6990 ft | 172 kts | 197° |
| 2026-04-22 15:48 | 39.20266 | -90.63533 | 6992 ft | 173 kts | 195° |
| 2026-04-22 15:49 | 39.19081 | -90.63847 | 6995 ft | 174 kts | 195° |
| 2026-04-22 15:49 | 39.17895 | -90.64168 | 6997 ft | 174 kts | 195° |
| 2026-04-22 15:49 | 39.16712 | -90.64486 | 6999 ft | 174 kts | 196° |
| 2026-04-22 15:49 | 39.15525 | -90.64805 | 7000 ft | 174 kts | 196° |
| 2026-04-22 15:50 | 39.14338 | -90.65119 | 6997 ft | 174 kts | 197° |
| 2026-04-22 15:50 | 39.13151 | -90.65442 | 6997 ft | 174 kts | 195° |
| 2026-04-22 15:50 | 39.11965 | -90.65760 | 6999 ft | 174 kts | 196° |
| 2026-04-22 15:50 | 39.10781 | -90.66080 | 6999 ft | 173 kts | 197° |
| 2026-04-22 15:51 | 39.09590 | -90.66229 | 7000 ft | 176 kts | 181° |
| 2026-04-22 15:51 | 39.08393 | -90.65829 | 7007 ft | 182 kts | 161° |
| 2026-04-22 15:51 | 39.07318 | -90.64947 | 7005 ft | 184 kts | 149° |
| 2026-04-22 15:51 | 39.06271 | -90.64000 | 7006 ft | 184 kts | 150° |
| 2026-04-22 15:52 | 39.05224 | -90.63064 | 7009 ft | 183 kts | 149° |
| 2026-04-22 15:52 | 39.04182 | -90.62120 | 7011 ft | 183 kts | 149° |
| 2026-04-22 15:52 | 39.03138 | -90.61175 | 7006 ft | 183 kts | 149° |
| 2026-04-22 15:52 | 39.02100 | -90.60232 | 7011 ft | 182 kts | 149° |
| 2026-04-22 15:53 | 39.01063 | -90.59294 | 7011 ft | 182 kts | 148° |
| 2026-04-22 15:53 | 39.00024 | -90.58360 | 7012 ft | 182 kts | 151° |
| 2026-04-22 15:53 | 38.98999 | -90.57439 | 7014 ft | 182 kts | 149° |
| 2026-04-22 15:53 | 38.97965 | -90.56496 | 7015 ft | 182 kts | 149° |
| 2026-04-22 15:54 | 38.96929 | -90.55556 | 7016 ft | 182 kts | 148° |
| 2026-04-22 15:54 | 38.95888 | -90.54621 | 7016 ft | 183 kts | 150° |
| 2026-04-22 15:54 | 38.94848 | -90.53683 | 7016 ft | 183 kts | 150° |
| 2026-04-22 15:54 | 38.93808 | -90.52743 | 7018 ft | 183 kts | 150° |
| 2026-04-22 15:55 | 38.92762 | -90.51806 | 7016 ft | 184 kts | 150° |
| 2026-04-22 15:55 | 38.91718 | -90.50862 | 7017 ft | 183 kts | 150° |
| 2026-04-22 15:55 | 38.90675 | -90.49919 | 7018 ft | 183 kts | 149° |
| 2026-04-22 15:55 | 38.89631 | -90.48980 | 7017 ft | 184 kts | 149° |
| 2026-04-22 15:56 | 38.88587 | -90.48040 | 7009 ft | 183 kts | 149° |
| 2026-04-22 15:56 | 38.87542 | -90.47102 | 7012 ft | 184 kts | 149° |
| 2026-04-22 15:56 | 38.86492 | -90.46157 | 7012 ft | 184 kts | 149° |
| 2026-04-22 15:56 | 38.85448 | -90.45218 | 7011 ft | 183 kts | 148° |
| 2026-04-22 15:57 | 38.84404 | -90.44279 | 7010 ft | 183 kts | 148° |
| 2026-04-22 15:57 | 38.83360 | -90.43341 | 7012 ft | 183 kts | 148° |
| 2026-04-22 15:57 | 38.82314 | -90.42401 | 7031 ft | 184 kts | 148° |
| 2026-04-22 15:57 | 38.81268 | -90.41461 | 7031 ft | 184 kts | 148° |
| 2026-04-22 15:58 | 38.80223 | -90.40522 | 7037 ft | 184 kts | 149° |
| 2026-04-22 15:58 | 38.79178 | -90.39589 | 6948 ft | 185 kts | 149° |
| 2026-04-22 15:58 | 38.78115 | -90.38642 | 6864 ft | 186 kts | 148° |
| 2026-04-22 15:58 | 38.77065 | -90.37693 | 6807 ft | 184 kts | 149° |
| 2026-04-22 15:59 | 38.76018 | -90.36755 | 6727 ft | 184 kts | 150° |
| 2026-04-22 15:59 | 38.74948 | -90.35859 | 6617 ft | 183 kts | 156° |
| 2026-04-22 15:59 | 38.73822 | -90.35141 | 6551 ft | 178 kts | 159° |
| 2026-04-22 15:59 | 38.72710 | -90.34431 | 6365 ft | 179 kts | 159° |
| 2026-04-22 16:00 | 38.71976 | -90.33956 | 6178 ft | 179 kts | 158° |
| 2026-04-22 16:00 | 38.70489 | -90.32987 | 5822 ft | 179 kts | 159° |
| 2026-04-22 16:00 | 38.69379 | -90.32267 | 5554 ft | 179 kts | 159° |
| 2026-04-22 16:00 | 38.68275 | -90.31546 | 5298 ft | 178 kts | 158° |
| 2026-04-22 16:01 | 38.67172 | -90.30828 | 5082 ft | 178 kts | 158° |
| 2026-04-22 16:01 | 38.66069 | -90.30111 | 4826 ft | 178 kts | 158° |
| 2026-04-22 16:01 | 38.64967 | -90.29394 | 4613 ft | 177 kts | 159° |
| 2026-04-22 16:01 | 38.63876 | -90.28683 | 4336 ft | 176 kts | 159° |
| 2026-04-22 16:02 | 38.62792 | -90.27937 | 4098 ft | 181 kts | 150° |
| 2026-04-22 16:02 | 38.62061 | -90.26631 | 3906 ft | 187 kts | 118° |
| 2026-04-22 16:02 | 38.61567 | -90.25086 | 3679 ft | 189 kts | 115° |
| 2026-04-22 16:02 | 38.61070 | -90.23543 | 3537 ft | 182 kts | 115° |
| 2026-04-22 16:03 | 38.60614 | -90.22095 | 3536 ft | 172 kts | 115° |
| 2026-04-22 16:03 | 38.60177 | -90.20693 | 3528 ft | 167 kts | 115° |
| 2026-04-22 16:03 | 38.59754 | -90.19331 | 3536 ft | 163 kts | 115° |
| 2026-04-22 16:03 | 38.59395 | -90.17958 | 3517 ft | 164 kts | 97° |
| 2026-04-22 16:04 | 38.59728 | -90.16629 | 3527 ft | 158 kts | 42° |
| 2026-04-22 16:04 | 38.60669 | -90.16056 | 3536 ft | 148 kts | 1° |
| 2026-04-22 16:04 | 38.61642 | -90.16187 | 3541 ft | 137 kts | 329° |
| 2026-04-22 16:04 | 38.62513 | -90.16678 | 3543 ft | 139 kts | 329° |
| 2026-04-22 16:05 | 38.63131 | -90.16974 | 3538 ft | 142 kts | 333° |
| 2026-04-22 16:05 | 38.64343 | -90.17526 | 3544 ft | 141 kts | 332° |
| 2026-04-22 16:05 | 38.64967 | -90.17806 | 3536 ft | 139 kts | 333° |
| 2026-04-22 16:05 | 38.65879 | -90.18206 | 3546 ft | 138 kts | 333° |
| 2026-04-22 16:06 | 38.66786 | -90.18614 | 3538 ft | 137 kts | 332° |
| 2026-04-22 16:06 | 38.67717 | -90.18880 | 3522 ft | 145 kts | 0° |
| 2026-04-22 16:06 | 38.68711 | -90.18676 | 3521 ft | 143 kts | 360° |
| 2026-04-22 16:06 | 38.69602 | -90.18089 | 3521 ft | 157 kts | 47° |
| 2026-04-22 16:07 | 38.69891 | -90.16763 | 3524 ft | 159 kts | 100° |
| 2026-04-22 16:07 | 38.69379 | -90.15564 | 3525 ft | 154 kts | 135° |
| 2026-04-22 16:07 | 38.68701 | -90.14496 | 3532 ft | 155 kts | 133° |
| 2026-04-22 16:07 | 38.68032 | -90.13416 | 3522 ft | 156 kts | 133° |
| 2026-04-22 16:08 | 38.67361 | -90.12345 | 3524 ft | 153 kts | 133° |
| 2026-04-22 16:08 | 38.66697 | -90.11294 | 3531 ft | 151 kts | 134° |
| 2026-04-22 16:08 | 38.66023 | -90.10240 | 3542 ft | 155 kts | 134° |
| 2026-04-22 16:08 | 38.65271 | -90.09310 | 3532 ft | 146 kts | 162° |
| 2026-04-22 16:09 | 38.64357 | -90.09322 | 3532 ft | 129 kts | 216° |
| 2026-04-22 16:09 | 38.63930 | -90.10220 | 3531 ft | 119 kts | 265° |
| 2026-04-22 16:09 | 38.64087 | -90.11248 | 3542 ft | 120 kts | 286° |
| 2026-04-22 16:09 | 38.64390 | -90.12263 | 3537 ft | 122 kts | 285° |
| 2026-04-22 16:10 | 38.64679 | -90.13279 | 3541 ft | 123 kts | 283° |
| 2026-04-22 16:10 | 38.64858 | -90.14363 | 3541 ft | 126 kts | 278° |
| 2026-04-22 16:10 | 38.65041 | -90.15442 | 3544 ft | 122 kts | 279° |
| 2026-04-22 16:10 | 38.65349 | -90.16453 | 3539 ft | 123 kts | 295° |
| 2026-04-22 16:11 | 38.65750 | -90.17418 | 3537 ft | 126 kts | 293° |
| 2026-04-22 16:11 | 38.66215 | -90.18423 | 3414 ft | 135 kts | 295° |
| 2026-04-22 16:11 | 38.66724 | -90.19475 | 3245 ft | 144 kts | 297° |
| 2026-04-22 16:11 | 38.67268 | -90.20593 | 3023 ft | 150 kts | 296° |
| 2026-04-22 16:12 | 38.67812 | -90.21708 | 2834 ft | 147 kts | 298° |
| 2026-04-22 16:12 | 38.68368 | -90.22802 | 2647 ft | 147 kts | 300° |
| 2026-04-22 16:12 | 38.68901 | -90.23877 | 2435 ft | 138 kts | 299° |
| 2026-04-22 16:12 | 38.69387 | -90.24874 | 2266 ft | 121 kts | 299° |
| 2026-04-22 16:13 | 38.69776 | -90.25679 | 2113 ft | 92 kts | 298° |
| 2026-04-22 16:13 | 38.70080 | -90.26309 | 2014 ft | 79 kts | 296° |
| 2026-04-22 16:13 | 38.70363 | -90.26912 | 1926 ft | 80 kts | 298° |
| 2026-04-22 16:13 | 38.70670 | -90.27521 | 1838 ft | 79 kts | 298° |
| 2026-04-22 16:14 | 38.70990 | -90.28101 | 1718 ft | 82 kts | 301° |
| 2026-04-22 16:14 | 38.71307 | -90.28713 | 1594 ft | 80 kts | 293° |
| 2026-04-22 16:14 | 38.71588 | -90.29323 | 1475 ft | 79 kts | 292° |
| 2026-04-22 16:14 | 38.71885 | -90.29918 | 1382 ft | 77 kts | 296° |
| 2026-04-22 16:15 | 38.72184 | -90.30505 | 1276 ft | 78 kts | 294° |
| 2026-04-22 16:15 | 38.72465 | -90.31093 | 1172 ft | 74 kts | 290° |
| 2026-04-22 16:15 | 38.72715 | -90.31655 | 1066 ft | 76 kts | 298° |
| 2026-04-22 16:15 | 38.73016 | -90.32230 | 962 ft | 80 kts | 295° |
| 2026-04-22 16:16 | 38.73308 | -90.32840 | 862 ft | 81 kts | 291° |
| 2026-04-22 16:16 | 38.73607 | -90.33449 | 784 ft | 82 kts | 300° |
| 2026-04-22 16:16 | 38.73902 | -90.34042 | 640 ft | 76 kts | 296° |
| 2026-04-22 16:16 | 38.74149 | -90.34567 | 594 ft | 62 kts | 304° |
| 2026-04-22 16:17 | 38.74449 | -90.35150 | 692 ft | 87 kts | 296° |
| 2026-04-22 16:17 | 38.74773 | -90.35831 | 993 ft | 100 kts | 294° |
| 2026-04-22 16:17 | 38.75119 | -90.36624 | 1428 ft | 100 kts | 292° |
| 2026-04-22 16:17 | 38.75464 | -90.37474 | 1675 ft | 114 kts | 291° |
| 2026-04-22 16:18 | 38.75512 | -90.38417 | 2051 ft | 109 kts | 242° |
| 2026-04-22 16:18 | 38.75110 | -90.39248 | 2424 ft | 112 kts | 241° |
| 2026-04-22 16:18 | 38.74699 | -90.40089 | 2801 ft | 110 kts | 240° |
| 2026-04-22 16:18 | 38.74291 | -90.40922 | 3216 ft | 113 kts | 240° |
| 2026-04-22 16:19 | 38.73891 | -90.41777 | 3528 ft | 116 kts | 240° |
| 2026-04-22 16:19 | 38.73431 | -90.42741 | 3545 ft | 136 kts | 241° |
| 2026-04-22 16:19 | 38.72917 | -90.43825 | 3547 ft | 148 kts | 241° |
| 2026-04-22 16:19 | 38.72394 | -90.44973 | 3539 ft | 151 kts | 243° |
| 2026-04-22 16:20 | 38.71860 | -90.46127 | 3546 ft | 151 kts | 240° |
| 2026-04-22 16:20 | 38.71312 | -90.47286 | 3534 ft | 154 kts | 241° |
| 2026-04-22 16:20 | 38.70763 | -90.48459 | 3545 ft | 153 kts | 242° |
| 2026-04-22 16:20 | 38.70121 | -90.49487 | 3524 ft | 149 kts | 217° |
| 2026-04-22 16:21 | 38.69109 | -90.49732 | 3537 ft | 152 kts | 185° |
| 2026-04-22 16:21 | 38.68063 | -90.49710 | 3534 ft | 148 kts | 185° |
| 2026-04-22 16:21 | 38.67031 | -90.49663 | 3527 ft | 147 kts | 182° |
| 2026-04-22 16:21 | 38.66026 | -90.49627 | 3525 ft | 142 kts | 187° |
| 2026-04-22 16:22 | 38.64085 | -90.49330 | 3524 ft | 155 kts | 150° |
| 2026-04-22 16:22 | 38.63379 | -90.48250 | 3532 ft | 160 kts | 130° |
| 2026-04-22 16:22 | 38.62739 | -90.47107 | 3543 ft | 158 kts | 130° |
| 2026-04-22 16:23 | 38.61454 | -90.44811 | 3517 ft | 157 kts | 131° |
| 2026-04-22 16:23 | 38.60833 | -90.43684 | 3521 ft | 153 kts | 130° |
| 2026-04-22 16:23 | 38.60233 | -90.42585 | 3532 ft | 154 kts | 130° |
| 2026-04-22 16:24 | 38.59606 | -90.41446 | 3521 ft | 158 kts | 130° |
| 2026-04-22 16:24 | 38.58371 | -90.39194 | 3519 ft | 151 kts | 130° |
| 2026-04-22 16:24 | 38.57770 | -90.38100 | 3517 ft | 151 kts | 130° |
| 2026-04-22 16:25 | 38.57174 | -90.36992 | 3521 ft | 151 kts | 130° |
| 2026-04-22 16:25 | 38.57105 | -90.34500 | 3535 ft | 153 kts | 43° |
| 2026-04-22 16:25 | 38.57831 | -90.33517 | 3529 ft | 152 kts | 43° |
| 2026-04-22 16:26 | 38.58559 | -90.32538 | 3534 ft | 151 kts | 32° |
| 2026-04-22 16:26 | 38.59488 | -90.31998 | 3537 ft | 149 kts | 15° |
| 2026-04-22 16:26 | 38.60426 | -90.31421 | 3540 ft | 150 kts | 18° |
| 2026-04-22 16:26 | 38.61381 | -90.30849 | 3543 ft | 153 kts | 17° |
| 2026-04-22 16:27 | 38.62352 | -90.30285 | 3531 ft | 153 kts | 17° |
| 2026-04-22 16:27 | 38.63313 | -90.29705 | 3510 ft | 147 kts | 18° |
| 2026-04-22 16:27 | 38.64193 | -90.29179 | 3458 ft | 135 kts | 17° |
| 2026-04-22 16:27 | 38.65056 | -90.28670 | 3254 ft | 139 kts | 16° |
| 2026-04-22 16:28 | 38.65926 | -90.28161 | 3189 ft | 135 kts | 19° |
| 2026-04-22 16:28 | 38.66780 | -90.27662 | 3016 ft | 136 kts | 17° |
| 2026-04-22 16:28 | 38.67641 | -90.27142 | 2826 ft | 137 kts | 19° |
| 2026-04-22 16:28 | 38.68499 | -90.26638 | 2672 ft | 134 kts | 19° |
| 2026-04-22 16:29 | 38.69346 | -90.26133 | 2465 ft | 136 kts | 14° |
| 2026-04-22 16:29 | 38.70195 | -90.26252 | 2273 ft | 121 kts | 316° |
| 2026-04-22 16:29 | 38.70618 | -90.27114 | 2040 ft | 108 kts | 290° |
| 2026-04-22 16:29 | 38.70944 | -90.27919 | 1665 ft | 96 kts | 293° |
| 2026-04-22 16:30 | 38.71162 | -90.28385 | 1458 ft | 88 kts | 294° |
| 2026-04-22 16:30 | 38.71583 | -90.29196 | 1181 ft | 76 kts | 296° |
| 2026-04-22 16:30 | 38.71811 | -90.29800 | 1111 ft | 75 kts | 287° |
| 2026-04-22 16:30 | 38.72102 | -90.30363 | 1136 ft | 80 kts | 298° |
| 2026-04-22 16:31 | 38.72376 | -90.30967 | 1164 ft | 77 kts | 286° |
| 2026-04-22 16:31 | 38.72686 | -90.31554 | 1113 ft | 84 kts | 298° |
| 2026-04-22 16:31 | 38.72992 | -90.32197 | 1062 ft | 84 kts | 295° |
| 2026-04-22 16:31 | 38.73319 | -90.32863 | 922 ft | 88 kts | 299° |
| 2026-04-22 16:32 | 38.73628 | -90.33494 | 751 ft | 81 kts | 292° |
| 2026-04-22 16:32 | 38.73911 | -90.34062 | 622 ft | 71 kts | 293° |
| 2026-04-22 16:32 | 38.74142 | -90.34544 | 594 ft | 55 kts | 301° |
| 2026-04-22 16:32 | 38.74312 | -90.34885 | 582 ft | 31 kts | 302° |
| 2026-04-22 16:33 | 38.74404 | -90.35069 | 579 ft | 24 kts | 302° |
| 2026-04-22 16:33 | 38.74491 | -90.35245 | 578 ft | 18 kts | 306° |
| 2026-04-22 16:33 | 38.74555 | -90.35291 | 578 ft | 13 kts | 30° |
| 2026-04-22 16:33 | 38.74630 | -90.35228 | 576 ft | 14 kts | 36° |
| 2026-04-22 16:34 | 38.74703 | -90.35142 | 575 ft | 13 kts | 116° |
| 2026-04-22 16:34 | 38.74643 | -90.35032 | 576 ft | 10 kts | 123° |
| 2026-04-22 16:34 | 38.74658 | -90.34964 | 576 ft | 8 kts | 33° |
| 2026-04-22 16:34 | 38.74673 | -90.34952 | 575 ft | 0 kts | 33° |